Thunder radar more information blitzortung!


Radar de pluja more information rain snow radar


Visita la nostra xarxa de llocs de meteo:

Template documentation
and downloads

And another site



No particular awareness of the weather is required.    There are no Weather-warnings

Pagina Historial Weather Underground text

Diari Resum Juny 12, 2017 Unitats:  Imperial    Mètric   Tant
« Previous Dia
SegĂźent Dia »
Diari Setmana Mensual Anual Personalitzada
  Maxima: Minima: Media:
Temperatura: 92.7 °F 64.9 °F 81.7 °F
Punt de rosada: 51.8 °F 43.5 °F 48 °F
Humitat: 51 % 22 % 32 %
Wind Speed: 13.8 mph 0 mph 4 mph
RĂ fegues de vent: 13.8 mph - -
Vent:- - South
Pression baro: 30 in 29.9 in -
Precipitacions: 0 in    
Historical Graphs
 
 
Dades de taula per Juny 12, 2017
Temps Temperatura Punt de rosada Pression baro Vent Wind Speed RĂ fegues de vent Humitat Rainfall Rate (Hourly)
00:00 66.4 °F 44.4 °F 30 in WSW 1 mph 1 mph 45 % 0 in
00:02 73.2 °F 43.9 °F 30 in Calm     35 % 0 in
00:07 72.9 °F 44.2 °F 30 in Calm     36 % 0 in
00:10 66.6 °F 45.1 °F 30 in Calm     46 % 0 in
00:20 66.6 °F 45.1 °F 30 in Calm   1 mph 46 % 0 in
00:30 66.2 °F 43.5 °F 30 in Calm     44 % 0 in
00:40 65.8 °F 44.4 °F 30 in ESE 1 mph 2 mph 46 % 0 in
00:50 65.8 °F 44.4 °F 30 in ENE 2 mph 2 mph 46 % 0 in
01:00 65.8 °F 44.4 °F 30 in Calm     46 % 0 in
01:10 65.8 °F 44.4 °F 30 in Calm     46 % 0 in
01:20 65.5 °F 44.1 °F 30 in NE 1 mph 2 mph 46 % 0 in
01:30 65.3 °F 44.1 °F 30 in Calm   1 mph 46 % 0 in
01:40 65.1 °F 43.9 °F 30 in SW 1 mph 3 mph 46 % 0 in
01:50 64.9 °F 43.7 °F 30 in SW 2 mph 2 mph 46 % 0 in
02:00 65.5 °F 43.5 °F 30 in WSW 1 mph 2 mph 45 % 0 in
02:10 66.2 °F 43.5 °F 30 in WSW 1 mph 2 mph 44 % 0 in
02:20 67.3 °F 44.6 °F 30 in Calm   1 mph 44 % 0 in
02:30 68.7 °F 45.9 °F 30 in Calm     44 % 0 in
02:40 70.2 °F 46.6 °F 30 in Calm     43 % 0 in
02:50 70.5 °F 45.7 °F 30 in SSW 1 mph 2 mph 41 % 0 in
03:00 70.9 °F 46 °F 30 in Calm   1 mph 41 % 0 in
03:10 71.8 °F 46.8 °F 30 in Calm   2 mph 41 % 0 in
03:20 73.8 °F 47.8 °F 30 in Calm   1 mph 40 % 0 in
03:30 73 °F 47.3 °F 30 in South 1 mph 2 mph 40 % 0 in
03:40 73.2 °F 48 °F 30 in SW 1 mph 3 mph 41 % 0 in
03:50 73.8 °F 47.3 °F 30 in Calm   3 mph 39 % 0 in
04:00 75.4 °F 48.7 °F 30 in SW 1 mph 1 mph 39 % 0 in
04:10 75.7 °F 48.9 °F 30 in SSE 2 mph 4 mph 39 % 0 in
04:20 77 °F 48.7 °F 30 in SE 2 mph 2 mph 37 % 0 in
04:30 77.5 °F 49.3 °F 30 in East 2 mph 2 mph 37 % 0 in
04:40 79.5 °F 51.1 °F 30 in ENE 1 mph 2 mph 37 % 0 in
04:50 80.4 °F 51.8 °F 30 in NNE 1 mph 2 mph 37 % 0 in
05:00 79.9 °F 50.5 °F 30 in NE 3 mph 5 mph 36 % 0 in
05:10 79.9 °F 48.9 °F 30 in ENE 3 mph 5 mph 34 % 0 in
05:20 82 °F 50.2 °F 30 in ENE 2 mph 2 mph 33 % 0 in
05:30 81.5 °F 48.7 °F 30 in East 3 mph 5 mph 32 % 0 in
05:40 81.9 °F 48.4 °F 30 in ENE 3 mph 5 mph 31 % 0 in
05:50 82 °F 47.5 °F 30 in East 3 mph 5 mph 30 % 0 in
10:57 82.9 °F 48.4 °F 30 in ESE 4.6 mph 4.6 mph 30 % 0 in
11:02 83.5 °F 48.7 °F 30 in SE 4.6 mph 4.6 mph 30 % 0 in
11:03 83.5 °F 48.7 °F 30 in ESE 4.9 mph 4.9 mph 30 % 0 in
11:08 83.3 °F 47.7 °F 30 in ESE 5.8 mph 5.8 mph 29 % 0 in
11:13 84.6 °F 48.7 °F 30 in East 5.8 mph 5.8 mph 29 % 0 in
11:18 84.6 °F 48.7 °F 30 in ENE 4.6 mph 4.6 mph 29 % 0 in
11:23 85.6 °F 48.7 °F 30 in ESE 8.5 mph 8.5 mph 28 % 0 in
11:28 85.6 °F 49.6 °F 30 in East 3.8 mph 3.8 mph 29 % 0 in
11:33 85.3 °F 48.6 °F 30 in SE 6.9 mph 6.9 mph 28 % 0 in
11:38 85.6 °F 47.8 °F 30 in South 3.5 mph 3.5 mph 27 % 0 in
11:43 86.7 °F 48.7 °F 30 in South 5.8 mph 5.8 mph 27 % 0 in
11:48 86.4 °F 48.4 °F 30 in NNE 4.6 mph 4.6 mph 27 % 0 in
11:53 86.7 °F 48.7 °F 30 in NNE 2.3 mph 2.3 mph 27 % 0 in
11:58 87.3 °F 48.2 °F 30 in South 2.4 mph 2.4 mph 26 % 0 in
12:03 87.1 °F 48 °F 30 in ENE 8.1 mph 8.1 mph 26 % 0 in
12:08 87.4 °F 48.4 °F 30 in East 5.8 mph 5.8 mph 26 % 0 in
12:13 87.6 °F 48.6 °F 30 in ENE 4.6 mph 4.6 mph 26 % 0 in
12:18 87.4 °F 48.4 °F 30 in NNE 5.8 mph 5.8 mph 26 % 0 in
12:23 87.3 °F 48.2 °F 30 in ENE 3.8 mph 5.4 mph 26 % 0 in
12:28 88.2 °F 47.8 °F 30 in NE 5.8 mph 5.8 mph 25 % 0 in
12:33 88.3 °F 49.1 °F 30 in NE 4.6 mph 4.6 mph 26 % 0 in
12:38 88.7 °F 49.5 °F 30 in SSE 4.6 mph 4.6 mph 26 % 0 in
12:43 88.9 °F 48.6 °F 30 in ENE 5.8 mph 5.8 mph 25 % 0 in
12:48 88.9 °F 48.6 °F 30 in ESE 5.9 mph 5.9 mph 25 % 0 in
12:53 88.7 °F 49.5 °F 30 in ESE 6.4 mph 6.4 mph 26 % 0 in
12:58 89.4 °F 50 °F 30 in ENE 6.2 mph 6.2 mph 26 % 0 in
13:03 89.1 °F 48.7 °F 30 in NE 5.8 mph 5.8 mph 25 % 0 in
13:08 89.6 °F 49.1 °F 30 in ENE 5.8 mph 5.8 mph 25 % 0 in
13:13 89.2 °F 49.8 °F 30 in ENE 5.8 mph 5.8 mph 26 % 0 in
13:18 88.9 °F 48.6 °F 30 in NNE 6.9 mph 6.9 mph 25 % 0 in
13:23 89.8 °F 48.2 °F 30 in SE 7.4 mph 7.4 mph 24 % 0 in
13:28 89.1 °F 48.7 °F 30 in SE 9.2 mph 9.2 mph 25 % 0 in
13:33 89.8 °F 49.3 °F 30 in SE 13.8 mph 13.8 mph 25 % 0 in
13:38 88.7 °F 49.5 °F 30 in ESE 8.1 mph 8.1 mph 26 % 0 in
13:43 89.1 °F 49.6 °F 30 in NE 8.1 mph 8.1 mph 26 % 0 in
13:48 88.9 °F 49.6 °F 30 in ENE 7.8 mph 7.8 mph 26 % 0 in
13:53 88.5 °F 49.3 °F 30 in SE 8.1 mph 8.1 mph 26 % 0 in
13:58 89.2 °F 49.8 °F 30 in SSE 8.1 mph 8.1 mph 26 % 0 in
14:03 88.9 °F 49.6 °F 30 in ESE 8.1 mph 8.1 mph 26 % 0 in
14:08 88.5 °F 49.3 °F 30 in East 10.4 mph 10.4 mph 26 % 0 in
14:13 87.6 °F 47.5 °F 30 in ESE 13 mph 13 mph 25 % 0 in
14:18 87.3 °F 47.1 °F 30 in ENE 8.1 mph 8.1 mph 25 % 0 in
14:23 87.4 °F 47.3 °F 30 in SSE 10.5 mph 10.5 mph 25 % 0 in
14:28 87.4 °F 47.3 °F 30 in NNE 5.8 mph 5.8 mph 25 % 0 in
14:33 87.3 °F 47.1 °F 30 in ESE 10.5 mph 10.5 mph 25 % 0 in
14:38 87.1 °F 45.9 °F 30 in NE 10.4 mph 10.4 mph 24 % 0 in
14:43 87.6 °F 46.4 °F 30 in East 8.1 mph 8.1 mph 24 % 0 in
14:48 87.6 °F 47.5 °F 30 in ESE 6.4 mph 6.4 mph 25 % 0 in
14:53 87.8 °F 47.7 °F 30 in East 8.1 mph 8.1 mph 25 % 0 in
14:58 88 °F 47.7 °F 30 in ENE 9.2 mph 9.2 mph 25 % 0 in
15:03 87.1 °F 46.9 °F 30 in ESE 10.4 mph 10.4 mph 25 % 0 in
15:08 87.4 °F 47.3 °F 30 in SE 5.8 mph 7.1 mph 25 % 0 in
15:13 87.3 °F 48.2 °F 30 in ESE 8.1 mph 8.1 mph 26 % 0 in
15:18 87.6 °F 48.6 °F 30 in SE 9.2 mph 9.2 mph 26 % 0 in
15:23 88.2 °F 48.9 °F 30 in ESE 8.1 mph 8.1 mph 26 % 0 in
15:28 87.6 °F 48.6 °F 30 in ESE 10.4 mph 10.4 mph 26 % 0 in
15:33 87.8 °F 48.6 °F 29.9 in SE 8.1 mph 8.1 mph 26 % 0 in
15:38 88.2 °F 48.9 °F 29.9 in SSE 5.9 mph 5.9 mph 26 % 0 in
15:43 87.8 °F 48.6 °F 29.9 in SE 9.2 mph 9.2 mph 26 % 0 in
15:48 87.6 °F 48.6 °F 30 in East 8.1 mph 8.7 mph 26 % 0 in
15:53 87.8 °F 48.6 °F 30 in ESE 9.2 mph 9.2 mph 26 % 0 in
15:58 87.6 °F 48.6 °F 30 in NE 6.9 mph 6.9 mph 26 % 0 in
16:03 88 °F 48.7 °F 29.9 in East 6 mph 6 mph 26 % 0 in
16:08 87.8 °F 48.6 °F 29.9 in ESE 9.2 mph 9.2 mph 26 % 0 in
16:13 88 °F 48.7 °F 29.9 in ENE 4.9 mph 4.9 mph 26 % 0 in
16:18 88.2 °F 48.9 °F 29.9 in East 10.4 mph 10.4 mph 26 % 0 in
16:23 88.2 °F 48.9 °F 29.9 in ESE 6.9 mph 6.9 mph 26 % 0 in
16:28 87.8 °F 48.6 °F 29.9 in ENE 8.1 mph 8.1 mph 26 % 0 in
16:33 87.8 °F 48.6 °F 29.9 in ESE 6.9 mph 6.9 mph 26 % 0 in
16:38 88 °F 48.7 °F 29.9 in ESE 6.9 mph 6.9 mph 26 % 0 in
16:43 87.6 °F 48.6 °F 29.9 in ESE 6.9 mph 6.9 mph 26 % 0 in
16:48 88 °F 48.7 °F 29.9 in ENE 9.2 mph 9.2 mph 26 % 0 in
16:53 88.5 °F 50.4 °F 29.9 in East 6 mph 6 mph 27 % 0 in
16:58 89.4 °F 48.9 °F 29.9 in SE 4.6 mph 4.6 mph 25 % 0 in
17:03 90.3 °F 48.6 °F 29.9 in ESE 2.3 mph 2.3 mph 24 % 0 in
17:08 89.6 °F 48 °F 29.9 in SSE 2.3 mph 2.3 mph 24 % 0 in
17:13 91.2 °F 49.5 °F 29.9 in SW 2.3 mph 2.3 mph 24 % 0 in
17:18 91.9 °F 48.7 °F 29.9 in SW 5.8 mph 5.8 mph 23 % 0 in
17:23 91.9 °F 48.7 °F 29.9 in SW 3.3 mph 3.3 mph 23 % 0 in
17:28 92.1 °F 48.9 °F 29.9 in SW 5.9 mph 5.9 mph 23 % 0 in
17:33 91.6 °F 48.6 °F 29.9 in SW 7.4 mph 7.4 mph 23 % 0 in
17:38 91.9 °F 48.7 °F 29.9 in SSW 2.3 mph 2.3 mph 23 % 0 in
17:43 91.9 °F 48.7 °F 29.9 in WSW 4.9 mph 4.9 mph 23 % 0 in
17:48 91.6 °F 48.6 °F 29.9 in SW 7.6 mph 7.6 mph 23 % 0 in
17:53 91.6 °F 47.5 °F 29.9 in WSW 5.8 mph 5.8 mph 22 % 0 in
17:58 92.3 °F 49.1 °F 29.9 in WNW 2.3 mph 2.3 mph 23 % 0 in
18:03 92.7 °F 49.5 °F 29.9 in WSW 2.3 mph 2.3 mph 23 % 0 in
18:08 92.3 °F 49.1 °F 29.9 in SSW 3.5 mph 4.3 mph 23 % 0 in
18:13 91.8 °F 47.5 °F 29.9 in NW 4.6 mph 4.6 mph 22 % 0 in
18:18 91.8 °F 48.7 °F 29.9 in SW 3.6 mph 3.6 mph 23 % 0 in
18:23 91.9 °F 48.7 °F 29.9 in West 4.6 mph 4.6 mph 23 % 0 in
18:28 91.4 °F 48.4 °F 29.9 in SW 2.3 mph 3.6 mph 23 % 0 in
18:33 91.4 °F 48.4 °F 29.9 in SSW 3.5 mph 3.5 mph 23 % 0 in
18:38 91.2 °F 48.2 °F 29.9 in SW 4.6 mph 4.6 mph 23 % 0 in
18:43 91.2 °F 48.2 °F 29.9 in SW 2.9 mph 3.3 mph 23 % 0 in
18:48 90.5 °F 47.7 °F 29.9 in WSW 5.8 mph 5.8 mph 23 % 0 in
18:53 90.1 °F 47.3 °F 29.9 in West 2.6 mph 2.6 mph 23 % 0 in
18:58 89.6 °F 46.9 °F 29.9 in WSW 5.9 mph 5.9 mph 23 % 0 in
19:03 89.6 °F 46.9 °F 29.9 in SSW 3.3 mph 3.3 mph 23 % 0 in
19:08 89.2 °F 47.7 °F 29.9 in SSW 8.1 mph 8.1 mph 24 % 0 in
19:13 88.9 °F 47.5 °F 29.9 in WSW 9.2 mph 9.2 mph 24 % 0 in
19:18 88.3 °F 46.9 °F 29.9 in SW 5.8 mph 5.8 mph 24 % 0 in
19:20 75.4 °F 49.5 °F 29.9 in SW 2 mph 3 mph 40 % 0 in
19:23 88.3 °F 46.9 °F 29.9 in WSW 4.7 mph 4.7 mph 24 % 0 in
19:28 88 °F 46.8 °F 29.9 in WSW 4.6 mph 4.6 mph 24 % 0 in
19:30 75.2 °F 49.3 °F 29.9 in WSW 1 mph 2 mph 40 % 0 in
19:33 87.8 °F 46.6 °F 29.9 in SSW 5.8 mph 5.8 mph 24 % 0 in
19:38 87.1 °F 46.9 °F 29.9 in South 6.9 mph 6.9 mph 25 % 0 in
19:40 75 °F 49.6 °F 29.9 in Calm   1 mph 41 % 0 in
19:43 86.9 °F 46.8 °F 29.9 in SSW 3.5 mph 3.6 mph 25 % 0 in
19:48 86.5 °F 46.6 °F 29.9 in WSW 2.4 mph 4.3 mph 25 % 0 in
19:50 74.8 °F 49.6 °F 29.9 in WSW 1 mph 1 mph 41 % 0 in
19:53 86.2 °F 46.2 °F 29.9 in WSW 2.4 mph 4.3 mph 25 % 0 in
19:58 85.8 °F 46.9 °F 29.9 in SW 2.9 mph 2.9 mph 26 % 0 in
20:00 74.3 °F 49.1 °F 29.9 in SW 1 mph 2 mph 41 % 0 in
20:03 85.1 °F 46.4 °F 29.9 in SSW 2.4 mph 5.9 mph 26 % 0 in
20:08 84.9 °F 46.2 °F 29.9 in SW 4.6 mph 4.6 mph 26 % 0 in
20:10 73.8 °F 48.6 °F 29.9 in SW 2 mph 3 mph 41 % 0 in
20:13 84.7 °F 46 °F 29.9 in SW 3.5 mph 3.6 mph 26 % 0 in
20:18 84.6 °F 45.9 °F 30 in SW 5.8 mph 5.8 mph 26 % 0 in
20:20 73.4 °F 48.9 °F 29.9 in SW 1 mph 2 mph 42 % 0 in
20:23 84 °F 46.4 °F 30 in SW 4.6 mph 4.6 mph 27 % 0 in
20:28 83.8 °F 46.2 °F 30 in WSW 4.3 mph 4.3 mph 27 % 0 in
20:29 83.8 °F 46.2 °F 30 in SW 4.6 mph 4.6 mph 27 % 0 in
20:30 73.4 °F 48.9 °F 29.9 in Calm   2 mph 42 % 0 in
20:34 83.5 °F 46 °F 29.9 in SW 5.8 mph 5.8 mph 27 % 0 in
20:39 83.1 °F 46.6 °F 29.9 in SW 5.8 mph 5.8 mph 28 % 0 in
20:40 73.2 °F 50 °F 29.9 in WNW 1 mph 2 mph 44 % 0 in
20:44 82.9 °F 46.6 °F 29.9 in WSW 2.4 mph 2.4 mph 28 % 0 in
20:49 82.6 °F 46.2 °F 29.9 in SW 6.9 mph 6.9 mph 28 % 0 in
20:50 73 °F 49.8 °F 29.9 in Calm   1 mph 44 % 0 in
20:54 82 °F 45.7 °F 29.9 in SW 4.6 mph 4.6 mph 28 % 0 in
20:59 82 °F 45.7 °F 29.9 in South 5.8 mph 5.8 mph 28 % 0 in
21:00 73.2 °F 50 °F 29.9 in Calm   1 mph 44 % 0 in
21:04 81.7 °F 46.2 °F 29.9 in SW 3.5 mph 3.5 mph 29 % 0 in
21:09 81.3 °F 46 °F 29.9 in WSW 6.9 mph 6.9 mph 29 % 0 in
21:10 73 °F 50.4 °F 29.9 in West 1 mph 1 mph 45 % 0 in
21:14 81 °F 45.7 °F 29.9 in SW 5.8 mph 5.8 mph 29 % 0 in
21:19 80.8 °F 45.7 °F 29.9 in SW 3.5 mph 3.5 mph 29 % 0 in
21:20 72 °F 49.5 °F 29.9 in SW 2 mph 2 mph 45 % 0 in
21:24 80.4 °F 46 °F 29.9 in NW 3.1 mph 3.1 mph 30 % 0 in
21:29 80.2 °F 46 °F 29.9 in West 2.4 mph 2.4 mph 30 % 0 in
21:30 72.1 °F 50.2 °F 29.9 in WSW 1 mph 2 mph 46 % 0 in
21:34 79.9 °F 45.7 °F 29.9 in WSW 2.3 mph 2.3 mph 30 % 0 in
21:39 79.7 °F 46.4 °F 29.9 in Calm     31 % 0 in
21:44 79.5 °F 47.1 °F 29.9 in Calm     32 % 0 in
21:49 79.3 °F 46.9 °F 29.9 in SW 2.3 mph 2.3 mph 32 % 0 in
21:50 72.7 °F 50.7 °F 29.9 in WSW 1 mph 2 mph 46 % 0 in
21:54 79.3 °F 46.9 °F 29.9 in SSW 2.3 mph 2.3 mph 32 % 0 in
21:59 79.2 °F 47.7 °F 29.9 in SW 2.3 mph 2.3 mph 33 % 0 in
22:00 72.3 °F 50.4 °F 29.9 in WSW 1 mph 2 mph 46 % 0 in
22:04 79 °F 47.5 °F 29.9 in SW 2.2 mph   33 % 0 in
22:09 78.8 °F 47.3 °F 29.9 in SW 2.4 mph 2.4 mph 33 % 0 in
22:10 71.8 °F 49.8 °F 29.9 in WSW 2 mph 3 mph 46 % 0 in
22:14 78.6 °F 47.8 °F 29.9 in SW 1.2 mph 1.4 mph 34 % 0 in
22:19 78.4 °F 47.7 °F 29.9 in SW 1.4 mph   34 % 0 in
22:20 71.2 °F 50 °F 29.9 in SW 1 mph 2 mph 47 % 0 in
22:24 78.3 °F 47.7 °F 29.9 in SW 1.6 mph 1.6 mph 34 % 0 in
22:29 78.1 °F 47.5 °F 29.9 in SW 2.3 mph 2.3 mph 34 % 0 in
22:30 71.1 °F 49.8 °F 29.9 in Calm     47 % 0 in
22:34 77.9 °F 48 °F 29.9 in SW 2 mph 2 mph 35 % 0 in
22:39 77.9 °F 48 °F 29.9 in SW 1.6 mph 1.6 mph 35 % 0 in
22:40 71.1 °F 49.8 °F 29.9 in Calm     47 % 0 in
22:44 77.7 °F 47.8 °F 29.9 in SW 1.4 mph 1.4 mph 35 % 0 in
22:49 77.5 °F 47.7 °F 29.9 in SW 2.3 mph 2.3 mph 35 % 0 in
22:50 69.8 °F 49.3 °F 29.9 in WNW 1 mph 2 mph 48 % 0 in
22:54 77.4 °F 48.4 °F 29.9 in West 2.3 mph 2.3 mph 36 % 0 in
22:59 77.2 °F 48.2 °F 29.9 in WSW 2.3 mph 2.3 mph 36 % 0 in
23:00 69.8 °F 49.3 °F 29.9 in Calm   1 mph 48 % 0 in
23:04 77 °F 48 °F 29.9 in WSW 2.3 mph 2.3 mph 36 % 0 in
23:09 77 °F 48 °F 29.9 in WSW 3.5 mph 3.5 mph 36 % 0 in
23:10 69.6 °F 50.2 °F 29.9 in Calm   1 mph 50 % 0 in
23:14 77 °F 48.7 °F 29.9 in SW 2.4 mph 2.4 mph 37 % 0 in
23:19 76.8 °F 49.3 °F 29.9 in West 2.9 mph 2.9 mph 38 % 0 in
23:20 69.4 °F 50 °F 29.9 in NW 1 mph 2 mph 50 % 0 in
23:24 76.8 °F 49.3 °F 29.9 in West 2.3 mph 2.3 mph 38 % 0 in
23:29 76.5 °F 48.9 °F 29.9 in WSW 2.3 mph 2.3 mph 38 % 0 in
23:30 69.6 °F 50.2 °F 29.9 in WSW 1 mph 2 mph 50 % 0 in
23:34 76.5 °F 49.6 °F 29.9 in WSW 2.3 mph 2.3 mph 39 % 0 in
23:39 76.3 °F 49.5 °F 29.9 in WSW 2.4 mph 2.4 mph 39 % 0 in
23:40 69.6 °F 50.7 °F 29.9 in Calm   1 mph 51 % 0 in
23:44 76.3 °F 49.5 °F 29.9 in WSW 2.3 mph 2.3 mph 39 % 0 in
23:49 76.1 °F 49.3 °F 29.9 in SW 2.3 mph 2.3 mph 39 % 0 in
23:50 68.9 °F 50 °F 29.9 in Calm   1 mph 51 % 0 in
23:54 75.9 °F 49.8 °F 29.9 in SW 2.3 mph 2.3 mph 40 % 0 in
23:59 75.7 °F 49.6 °F 29.9 in SW 2.6 mph 2.6 mph 40 % 0 in
Meteo Sesrovires
Elogis d' Weather Underground - 3.75 mb

Guio original per  Jim McMurry - jmcmurry@mwt.net Adaptat per a la plantilla per  Wim van der Kuil - Leuven-Template.eu

Trobareu la nostra informacio del temps tambe a:

Weather Underground

AWEKAS